createdAt,value
2024-05-09T00:00:01.148Z,25.3
2024-05-09T00:01:01.209Z,25.3
2024-05-09T00:02:01.205Z,25.3
2024-05-09T00:03:01.264Z,25.3
2024-05-09T00:04:01.302Z,25.3
2024-05-09T00:05:01.232Z,25.3
2024-05-09T00:07:01.163Z,25.3
2024-05-09T00:08:01.420Z,25.3
2024-05-09T00:10:02.245Z,25.3
2024-05-09T00:11:01.200Z,25.3
2024-05-09T00:12:01.244Z,25.3
2024-05-09T00:13:01.134Z,25.3
2024-05-09T00:14:01.171Z,25.3
2024-05-09T00:15:01.127Z,25.3
2024-05-09T00:16:01.157Z,25.3
2024-05-09T00:17:01.330Z,25.3
2024-05-09T00:18:01.617Z,25.3
2024-05-09T00:19:01.188Z,25.3
2024-05-09T00:20:01.269Z,25.3
2024-05-09T00:21:01.399Z,25.3
2024-05-09T00:22:01.166Z,25.3
2024-05-09T00:24:01.118Z,25.3
2024-05-09T00:25:01.145Z,25.3
2024-05-09T00:26:01.180Z,25.3
2024-05-09T00:27:01.152Z,25.3
2024-05-09T00:28:01.142Z,25.3
2024-05-09T00:30:01.199Z,25.3
2024-05-09T00:31:01.199Z,25.3
2024-05-09T00:33:01.541Z,25.3
2024-05-09T00:35:01.318Z,25.3
2024-05-09T00:36:01.162Z,25.3
2024-05-09T00:37:01.177Z,25.3
2024-05-09T00:38:01.429Z,25.3
2024-05-09T00:40:01.172Z,25.3
2024-05-09T00:41:01.272Z,25.3
2024-05-09T00:43:01.167Z,25.3
2024-05-09T00:44:01.216Z,25.3
2024-05-09T00:45:01.165Z,25.3
2024-05-09T00:46:01.155Z,25.3
2024-05-09T00:47:01.125Z,25.3
2024-05-09T00:48:01.643Z,25.3
2024-05-09T00:49:01.312Z,25.3
2024-05-09T00:51:01.243Z,25.3
2024-05-09T00:52:01.149Z,25.3
2024-05-09T00:53:01.296Z,25.3
2024-05-09T00:55:01.147Z,25.3
2024-05-09T00:56:01.253Z,25.3
2024-05-09T00:58:01.166Z,25.4
2024-05-09T01:00:01.190Z,25.4
2024-05-09T01:01:01.224Z,25.4
2024-05-09T01:02:01.294Z,25.4
2024-05-09T01:03:01.463Z,25.4
2024-05-09T01:04:01.372Z,25.4
2024-05-09T01:06:24.355Z,25.5
2024-05-09T01:06:24.564Z,25.5
2024-05-09T01:08:01.263Z,25.5
2024-05-09T01:09:01.213Z,25.5
2024-05-09T01:10:01.224Z,25.5
2024-05-09T01:11:01.301Z,25.5
2024-05-09T01:12:01.313Z,25.5
2024-05-09T01:13:01.203Z,25.5
2024-05-09T01:15:01.180Z,25.5
2024-05-09T01:16:01.248Z,25.5
2024-05-09T01:17:01.232Z,25.5
2024-05-09T01:18:01.503Z,25.5
2024-05-09T01:19:01.324Z,25.5
2024-05-09T01:20:01.295Z,25.4
2024-05-09T01:21:01.307Z,25.4
2024-05-09T01:22:01.172Z,25.4
2024-05-09T01:23:01.340Z,25.4
2024-05-09T01:25:01.261Z,25.4
2024-05-09T01:26:01.233Z,25.4
2024-05-09T01:27:01.159Z,25.4
2024-05-09T01:28:01.237Z,25.4
2024-05-09T01:29:01.386Z,25.4
2024-05-09T01:30:01.244Z,25.4
2024-05-09T01:32:01.356Z,25.4
2024-05-09T01:33:01.525Z,25.4
2024-05-09T01:35:01.321Z,25.4
2024-05-09T01:36:01.190Z,25.4
2024-05-09T01:37:01.177Z,25.4
2024-05-09T01:38:01.357Z,25.4
2024-05-09T01:40:01.187Z,25.4
2024-05-09T01:41:01.226Z,25.4
2024-05-09T01:42:01.207Z,25.4
2024-05-09T01:43:01.238Z,25.4
2024-05-09T01:44:02.788Z,25.4
2024-05-09T01:46:01.233Z,25.4
2024-05-09T01:48:01.965Z,25.4
2024-05-09T01:49:01.394Z,25.4
2024-05-09T01:50:01.409Z,25.4
2024-05-09T01:51:01.383Z,25.4
2024-05-09T01:53:01.325Z,25.4
2024-05-09T01:54:01.239Z,25.4
2024-05-09T01:55:04.673Z,25.4
2024-05-09T01:57:01.183Z,25.4
2024-05-09T01:58:01.227Z,25.4
2024-05-09T01:59:01.312Z,25.4
2024-05-09T02:01:01.288Z,25.4
2024-05-09T02:02:01.666Z,25.4
2024-05-09T02:03:01.616Z,25.4
2024-05-09T02:05:01.330Z,25.4
2024-05-09T02:07:01.203Z,25.4
2024-05-09T02:08:01.391Z,25.4
2024-05-09T02:10:01.237Z,25.4
2024-05-09T02:11:01.458Z,25.4
2024-05-09T02:13:01.305Z,25.4
2024-05-09T02:14:01.339Z,25.4
2024-05-09T02:15:01.218Z,25.4
2024-05-09T02:16:01.214Z,25.4
2024-05-09T02:17:01.323Z,25.4
2024-05-09T02:18:01.390Z,25.4
2024-05-09T02:19:01.400Z,25.4
2024-05-09T02:20:01.274Z,25.4
2024-05-09T02:21:01.497Z,25.4
2024-05-09T02:22:01.216Z,25.4
2024-05-09T02:23:01.311Z,25.4
2024-05-09T02:24:01.202Z,25.4
2024-05-09T02:25:01.261Z,25.4
2024-05-09T02:27:01.217Z,25.4
2024-05-09T02:28:01.228Z,25.4
2024-05-09T02:29:01.304Z,25.4
2024-05-09T02:30:01.259Z,25.4
2024-05-09T02:32:01.417Z,25.4
2024-05-09T02:33:01.514Z,25.4
2024-05-09T02:35:01.370Z,25.4
2024-05-09T02:36:01.338Z,25.4
2024-05-09T02:37:01.233Z,25.4
2024-05-09T02:38:01.416Z,25.4
2024-05-09T02:39:01.267Z,25.4
2024-05-09T02:41:01.289Z,25.4
2024-05-09T02:42:01.239Z,25.4
2024-05-09T02:43:01.254Z,25.4
2024-05-09T02:45:01.254Z,25.4
2024-05-09T02:46:01.230Z,25.4
2024-05-09T02:47:01.352Z,25.4
2024-05-09T02:48:02.164Z,25.4
2024-05-09T02:49:01.424Z,25.4
2024-05-09T02:50:01.284Z,25.4
2024-05-09T02:52:01.268Z,25.4
2024-05-09T02:53:01.441Z,25.4
2024-05-09T02:54:01.239Z,25.4
2024-05-09T02:55:01.294Z,25.4
2024-05-09T02:56:01.291Z,25.4
2024-05-09T02:57:01.245Z,25.4
2024-05-09T02:59:01.297Z,25.4
2024-05-09T03:00:01.222Z,25.4
2024-05-09T03:01:01.389Z,25.4
2024-05-09T03:02:01.418Z,25.4
2024-05-09T03:03:01.535Z,25.4
2024-05-09T03:04:01.366Z,25.4
2024-05-09T03:05:01.338Z,25.4
2024-05-09T03:06:01.269Z,25.4
2024-05-09T03:07:01.228Z,25.4
2024-05-09T03:08:01.392Z,25.4
2024-05-09T03:09:01.279Z,25.4
2024-05-09T03:10:01.255Z,25.4
2024-05-09T03:11:01.365Z,25.4
2024-05-09T03:12:01.439Z,25.4
2024-05-09T03:13:01.268Z,25.4
2024-05-09T03:14:01.302Z,25.4
2024-05-09T03:15:01.281Z,25.4
2024-05-09T03:16:01.252Z,25.4
2024-05-09T03:17:01.319Z,25.4
2024-05-09T03:18:01.728Z,25.4
2024-05-09T03:19:01.425Z,25.4
2024-05-09T03:21:01.305Z,25.4
2024-05-09T03:22:01.267Z,25.4
2024-05-09T03:23:01.385Z,25.4
2024-05-09T03:24:01.287Z,25.4
2024-05-09T03:26:01.412Z,25.4
2024-05-09T03:27:01.308Z,25.4
2024-05-09T03:28:01.378Z,25.4
2024-05-09T03:29:01.319Z,25.4
2024-05-09T03:30:01.274Z,25.4
2024-05-09T03:31:01.277Z,25.4
2024-05-09T03:32:01.411Z,25.4
2024-05-09T03:33:01.448Z,25.4
2024-05-09T03:34:01.468Z,25.4
2024-05-09T03:35:01.350Z,25.4
2024-05-09T03:37:01.356Z,25.4
2024-05-09T03:39:01.272Z,25.4
2024-05-09T03:40:01.453Z,25.4
2024-05-09T03:41:01.392Z,25.4
2024-05-09T03:42:01.250Z,25.4
2024-05-09T03:43:01.300Z,25.4
2024-05-09T03:44:01.327Z,25.4
2024-05-09T03:45:01.274Z,25.4
2024-05-09T03:47:01.332Z,25.4
2024-05-09T03:48:01.476Z,25.4
2024-05-09T03:50:01.426Z,25.4
2024-05-09T03:51:01.342Z,25.4
2024-05-09T03:52:01.278Z,25.4
2024-05-09T03:53:01.546Z,25.4
2024-05-09T03:55:01.320Z,25.4
2024-05-09T03:56:01.379Z,25.4
2024-05-09T03:57:01.332Z,25.4
2024-05-09T03:58:01.310Z,25.4
2024-05-09T04:00:01.284Z,25.4
2024-05-09T04:01:01.338Z,25.4
2024-05-09T04:02:01.380Z,25.4
2024-05-09T04:04:01.338Z,25.4
2024-05-09T04:05:01.371Z,25.4
2024-05-09T04:06:01.311Z,25.4
2024-05-09T04:07:01.320Z,25.4
2024-05-09T04:08:01.513Z,25.4
2024-05-09T04:09:01.325Z,25.4
2024-05-09T04:10:01.294Z,25.4
2024-05-09T04:11:01.492Z,25.4
2024-05-09T04:13:01.412Z,25.4
2024-05-09T04:14:01.302Z,25.4
2024-05-09T04:15:01.314Z,25.4
2024-05-09T04:17:01.417Z,25.4
2024-05-09T04:18:02.325Z,25.4
2024-05-09T04:20:01.452Z,25.4
2024-05-09T04:21:01.535Z,25.4
2024-05-09T04:22:01.311Z,25.4
2024-05-09T04:23:01.395Z,25.4
2024-05-09T04:24:01.291Z,25.4
2024-05-09T04:25:01.341Z,25.4
2024-05-09T04:27:01.325Z,25.4
2024-05-09T04:28:01.351Z,25.4
2024-05-09T04:29:01.339Z,25.4
2024-05-09T04:30:01.309Z,25.3
2024-05-09T04:31:01.321Z,25.3
2024-05-09T04:32:01.472Z,25.3
2024-05-09T04:34:01.487Z,25.4
2024-05-09T04:35:01.373Z,25.4
2024-05-09T04:36:01.335Z,25.4
2024-05-09T04:37:01.337Z,25.4
2024-05-09T04:38:01.431Z,25.4
2024-05-09T04:39:01.318Z,25.3
2024-05-09T04:41:01.352Z,25.3
2024-05-09T04:42:01.292Z,25.3
2024-05-09T04:43:01.317Z,25.3
2024-05-09T04:44:01.432Z,25.3
2024-05-09T04:45:01.435Z,25.3
2024-05-09T04:46:01.350Z,25.3
2024-05-09T04:47:01.367Z,25.3
2024-05-09T04:48:02.162Z,25.3
2024-05-09T04:49:01.545Z,25.3
2024-05-09T04:50:02.833Z,25.2
2024-05-09T04:52:01.363Z,25.2
2024-05-09T04:53:01.433Z,25.2
2024-05-09T04:55:01.376Z,25.2
2024-05-09T04:57:01.353Z,25.2
2024-05-09T04:58:01.413Z,25.2
2024-05-09T05:00:01.356Z,25.2
2024-05-09T05:01:01.373Z,25.2
2024-05-09T05:02:01.448Z,25.2
2024-05-09T05:03:01.516Z,25.2
2024-05-09T05:04:01.440Z,25.2
2024-05-09T05:06:01.502Z,25.2
2024-05-09T05:07:02.959Z,25.2
2024-05-09T05:08:01.410Z,25.2
2024-05-09T05:10:01.365Z,25.2
2024-05-09T05:11:01.377Z,25.2
2024-05-09T05:12:01.507Z,25.2
2024-05-09T05:13:01.375Z,25.8
2024-05-09T05:14:01.452Z,25.1
2024-05-09T05:15:01.352Z,25.7
2024-05-09T05:16:01.405Z,25.1
2024-05-09T05:17:01.431Z,25.7
2024-05-09T05:18:01.614Z,25.1
2024-05-09T05:19:01.506Z,25.1
2024-05-09T05:20:01.617Z,25.1
2024-05-09T05:21:01.446Z,25.7
2024-05-09T05:22:01.347Z,25.7
2024-05-09T05:23:01.508Z,25.7
2024-05-09T05:24:01.364Z,25.7
2024-05-09T05:25:01.392Z,25.7
2024-05-09T05:26:01.371Z,25.7
2024-05-09T05:27:01.389Z,25.7
2024-05-09T05:28:01.400Z,25.7
2024-05-09T05:29:01.412Z,25.7
2024-05-09T05:30:01.366Z,25.7
2024-05-09T05:32:01.465Z,25.7
2024-05-09T05:33:01.584Z,25.7
2024-05-09T05:34:01.411Z,25.7
2024-05-09T05:36:01.404Z,25.7
2024-05-09T05:37:01.371Z,25.6
2024-05-09T05:38:01.579Z,25.6
2024-05-09T05:40:01.380Z,25.6
2024-05-09T05:41:01.459Z,25.6
2024-05-09T05:42:01.376Z,25.6
2024-05-09T05:43:01.374Z,25.6
2024-05-09T05:45:01.378Z,25.6
2024-05-09T05:46:01.359Z,25.6
2024-05-09T05:47:01.507Z,25.6
2024-05-09T05:48:01.777Z,25.6
2024-05-09T05:50:01.452Z,25.6
2024-05-09T05:51:04.441Z,25
2024-05-09T05:52:01.404Z,25.6
2024-05-09T05:54:01.385Z,25.6
2024-05-09T05:55:01.382Z,25.6
2024-05-09T05:56:01.560Z,25.6
2024-05-09T05:57:01.355Z,25.6
2024-05-09T05:58:01.417Z,25.6
2024-05-09T05:59:01.521Z,25.6
2024-05-09T06:00:01.393Z,25.6
2024-05-09T06:01:01.432Z,25.6
2024-05-09T06:02:01.409Z,25.6
2024-05-09T06:03:01.542Z,25.6
2024-05-09T06:04:01.493Z,25.6
2024-05-09T06:06:01.473Z,25.6
2024-05-09T06:07:01.409Z,25.6
2024-05-09T06:08:01.473Z,25.5
2024-05-09T06:09:01.386Z,25.5
2024-05-09T06:10:01.434Z,25.5
2024-05-09T06:12:01.623Z,25.5
2024-05-09T06:13:01.451Z,25.5
2024-05-09T06:15:01.397Z,25.5
2024-05-09T06:16:01.399Z,25.5
2024-05-09T06:17:01.416Z,25.5
2024-05-09T06:19:01.455Z,25.6
2024-05-09T06:20:01.500Z,25.6
2024-05-09T06:22:03.330Z,25.6
2024-05-09T06:23:01.531Z,25.6
2024-05-09T06:25:01.422Z,25.6
2024-05-09T06:26:01.487Z,25.1
2024-05-09T06:27:01.466Z,25.6
2024-05-09T06:28:01.540Z,25.6
2024-05-09T06:29:01.535Z,25.6
2024-05-09T06:30:01.452Z,25.6
2024-05-09T06:32:01.519Z,25.6
2024-05-09T06:33:01.662Z,25.6
2024-05-09T06:35:01.457Z,25.6
2024-05-09T06:36:01.415Z,25.6
2024-05-09T06:37:03.897Z,25.6
2024-05-09T06:39:01.418Z,25.6
2024-05-09T06:40:01.407Z,25.6
2024-05-09T06:41:01.496Z,25.6
2024-05-09T06:42:01.402Z,25.6
2024-05-09T06:43:01.419Z,25.6
2024-05-09T06:44:01.502Z,25.6
2024-05-09T06:46:01.427Z,25.6
2024-05-09T06:47:01.577Z,25.6
2024-05-09T06:49:01.653Z,25.6
2024-05-09T06:50:01.504Z,25.6
2024-05-09T06:51:01.479Z,25.6
2024-05-09T06:52:01.449Z,25.6
2024-05-09T06:53:01.523Z,25.1
2024-05-09T06:54:01.415Z,25.6
2024-05-09T06:55:01.445Z,25.6
2024-05-09T06:57:01.448Z,25.6
2024-05-09T06:58:01.426Z,25.6
2024-05-09T07:00:01.436Z,25.6
2024-05-09T07:01:01.506Z,25.6
2024-05-09T07:02:01.466Z,25.6
2024-05-09T07:04:01.560Z,25.6
2024-05-09T07:05:01.708Z,25.6
2024-05-09T07:06:01.633Z,25.6
2024-05-09T07:07:01.467Z,25.5
2024-05-09T07:08:01.491Z,25.5
2024-05-09T07:09:01.557Z,25.5
2024-05-09T07:10:04.026Z,25.5
2024-05-09T07:11:01.580Z,25.5
2024-05-09T07:13:01.475Z,25.5
2024-05-09T07:14:01.501Z,25.5
2024-05-09T07:15:01.432Z,25.5
2024-05-09T07:16:01.439Z,25.5
2024-05-09T07:17:05.561Z,25.5
2024-05-09T07:20:01.544Z,25.5
2024-05-09T07:21:01.627Z,25.5
2024-05-09T07:23:01.776Z,25.5
2024-05-09T07:25:01.436Z,25.5
2024-05-09T07:26:01.509Z,25.5
2024-05-09T07:27:01.493Z,25.5
2024-05-09T07:28:01.447Z,25.5
2024-05-09T07:30:01.511Z,25.5
2024-05-09T07:31:01.472Z,25.5
2024-05-09T07:32:01.510Z,25.5
2024-05-09T07:33:02.536Z,25.5
2024-05-09T07:34:01.559Z,25.5
2024-05-09T07:35:01.540Z,25.5
2024-05-09T07:36:01.475Z,25.5
2024-05-09T07:37:01.461Z,25.5
2024-05-09T07:38:01.550Z,25.5
2024-05-09T07:39:01.504Z,25.5
2024-05-09T07:40:01.429Z,25.5
2024-05-09T07:41:01.599Z,25.5
2024-05-09T07:42:01.482Z,25.5
2024-05-09T07:43:01.551Z,25.5
2024-05-09T07:46:48.264Z,25.5
2024-05-09T07:50:35.986Z,25.5
2024-05-09T07:51:51.317Z,25.5
2024-05-09T07:53:07.644Z,25.5
2024-05-09T07:53:25.221Z,25.5
2024-05-09T07:53:36.023Z,25.5
2024-05-09T07:55:01.703Z,25.5
2024-05-09T07:56:01.707Z,24.9
2024-05-09T07:57:01.730Z,25
2024-05-09T07:58:01.497Z,25
2024-05-09T07:59:01.480Z,25
2024-05-09T08:00:01.524Z,25.6
2024-05-09T08:01:01.627Z,25
2024-05-09T08:02:01.576Z,25
2024-05-09T08:03:01.524Z,25.6
2024-05-09T08:04:01.662Z,25.6
2024-05-09T08:06:01.573Z,25.6
2024-05-09T08:07:01.587Z,25.6
2024-05-09T08:08:01.529Z,25.6
2024-05-09T08:09:05.505Z,25.6
2024-05-09T08:10:01.652Z,25.6
2024-05-09T08:11:01.492Z,25.6
2024-05-09T08:13:01.717Z,25.6
2024-05-09T08:14:01.484Z,25.6
2024-05-09T08:16:01.618Z,25.6
2024-05-09T08:17:01.536Z,25.6
2024-05-09T08:19:01.637Z,25.6
2024-05-09T08:20:03.705Z,25.6
2024-05-09T08:21:01.532Z,25.6
2024-05-09T08:23:01.526Z,25.5
2024-05-09T08:24:01.753Z,25.5
2024-05-09T08:26:01.486Z,25.5
2024-05-09T08:27:01.490Z,25.5
2024-05-09T08:28:01.584Z,25.5
2024-05-09T08:29:01.506Z,25.5
2024-05-09T08:30:01.640Z,25.5
2024-05-09T08:31:04.101Z,25.5
2024-05-09T08:33:01.661Z,25.5
2024-05-09T08:34:01.635Z,25.5
2024-05-09T08:35:01.567Z,25.4
2024-05-09T08:36:01.486Z,25.4
2024-05-09T08:37:09.810Z,25.4
2024-05-09T08:38:01.817Z,25.4
2024-05-09T08:39:01.512Z,25.5
2024-05-09T08:40:01.602Z,25.5
2024-05-09T08:41:01.578Z,25.5
2024-05-09T08:42:01.534Z,25.5
2024-05-09T08:43:01.634Z,25.5
2024-05-09T08:44:01.465Z,25.5
2024-05-09T08:45:01.497Z,25.5
2024-05-09T08:47:01.707Z,25.5
2024-05-09T08:48:01.728Z,25.4
2024-05-09T08:49:01.831Z,25.4
2024-05-09T08:51:01.548Z,25.4
2024-05-09T08:52:01.554Z,25.4
2024-05-09T08:53:01.515Z,25.4
2024-05-09T08:54:01.546Z,25.4
2024-05-09T08:55:01.618Z,25.4
2024-05-09T08:56:01.500Z,24.9
2024-05-09T08:57:01.542Z,24.9
2024-05-09T08:59:01.568Z,25.4
2024-05-09T09:00:01.530Z,25.4
2024-05-09T09:01:01.672Z,25.4
2024-05-09T09:02:01.666Z,25.4
2024-05-09T09:04:01.777Z,25.4
2024-05-09T09:05:01.641Z,25.4
2024-05-09T09:07:03.515Z,25.4
2024-05-09T09:09:01.560Z,25.4
2024-05-09T09:10:01.647Z,25.3
2024-05-09T09:11:01.529Z,25.3
2024-05-09T09:12:01.560Z,25.2
2024-05-09T09:13:01.623Z,25.2
2024-05-09T09:15:01.559Z,25.1
2024-05-09T09:16:01.580Z,25
2024-05-09T09:17:01.535Z,25
2024-05-09T09:18:01.824Z,24.9
2024-05-09T09:19:01.732Z,24.9
2024-05-09T09:20:01.742Z,24.9
2024-05-09T09:21:01.554Z,24.9
2024-05-09T09:22:01.605Z,24.8
2024-05-09T09:23:01.589Z,24.8
2024-05-09T09:24:01.559Z,24.8
2024-05-09T09:25:01.654Z,24.8
2024-05-09T09:26:01.646Z,24.9
2024-05-09T09:27:01.550Z,24.9
2024-05-09T09:28:01.634Z,24.9
2024-05-09T09:29:01.590Z,24.9
2024-05-09T09:31:01.615Z,24.9
2024-05-09T09:32:01.554Z,24.9
2024-05-09T09:33:01.676Z,24.9
2024-05-09T09:35:01.723Z,24.9
2024-05-09T09:36:01.586Z,25
2024-05-09T09:38:01.549Z,25
2024-05-09T09:39:01.553Z,25
2024-05-09T09:41:01.818Z,25
2024-05-09T09:42:01.584Z,25
2024-05-09T09:43:01.658Z,25
2024-05-09T09:44:01.572Z,25
2024-05-09T09:45:05.225Z,25
2024-05-09T09:47:01.620Z,25
2024-05-09T09:48:01.709Z,25
2024-05-09T09:49:01.761Z,25
2024-05-09T09:50:01.557Z,25
2024-05-09T09:51:01.594Z,25
2024-05-09T09:52:01.598Z,25
2024-05-09T09:53:01.618Z,25
2024-05-09T09:54:01.602Z,25
2024-05-09T09:55:01.678Z,25
2024-05-09T09:56:01.503Z,25
2024-05-09T09:57:01.587Z,25
2024-05-09T09:58:01.675Z,25.1
2024-05-09T10:00:01.539Z,25.1
2024-05-09T10:01:01.773Z,25.1
2024-05-09T10:02:01.734Z,25.1
2024-05-09T10:04:01.725Z,25.1
2024-05-09T10:05:01.825Z,25.1
2024-05-09T10:06:01.670Z,25.1
2024-05-09T10:07:01.684Z,25.1
2024-05-09T10:08:01.533Z,25.1
2024-05-09T10:09:01.585Z,25.1
2024-05-09T10:10:01.650Z,25.1
2024-05-09T10:11:01.677Z,25.2
2024-05-09T10:12:01.635Z,25.2
2024-05-09T10:13:01.709Z,25.2
2024-05-09T10:14:01.553Z,25.2
2024-05-09T10:15:01.800Z,25.2
2024-05-09T10:17:01.687Z,25.2
2024-05-09T10:18:01.642Z,25.2
2024-05-09T10:19:01.762Z,25.2
2024-05-09T10:21:01.595Z,25.2
2024-05-09T10:22:01.682Z,25.2
2024-05-09T10:23:01.649Z,25.2
2024-05-09T10:25:03.676Z,25.2
2024-05-09T10:26:01.888Z,25.2
2024-05-09T10:27:01.608Z,25.2
2024-05-09T10:29:01.581Z,25.2
2024-05-09T10:30:02.800Z,25.2
2024-05-09T10:31:01.704Z,25.2
2024-05-09T10:32:01.558Z,25.2
2024-05-09T10:33:01.729Z,25.2
2024-05-09T10:34:01.764Z,25.2
2024-05-09T10:35:01.856Z,25.2
2024-05-09T10:36:01.688Z,25.2
2024-05-09T10:38:01.628Z,25.2
2024-05-09T10:39:01.596Z,25.2
2024-05-09T10:40:01.671Z,25.2
2024-05-09T10:41:01.642Z,25.2
2024-05-09T10:42:01.554Z,25.2
2024-05-09T10:43:04.490Z,25.2
2024-05-09T10:44:01.572Z,25.2
2024-05-09T10:45:01.630Z,25.2
2024-05-09T10:46:01.686Z,25.2
2024-05-09T10:48:01.716Z,25.2
2024-05-09T10:49:05.323Z,25.2
2024-05-09T10:50:01.734Z,25.2
2024-05-09T10:52:01.668Z,25.2
2024-05-09T10:53:01.591Z,25.2
2024-05-09T10:54:01.602Z,25.2
2024-05-09T10:55:03.816Z,25.2
2024-05-09T10:56:01.672Z,25.2
2024-05-09T10:57:01.605Z,25.2
2024-05-09T10:58:01.640Z,25.2
2024-05-09T10:59:01.699Z,25.2
2024-05-09T11:00:01.607Z,25.2
2024-05-09T11:01:05.620Z,25.2
2024-05-09T11:02:01.683Z,25.2
2024-05-09T11:04:01.813Z,25.2
2024-05-09T11:05:01.778Z,25.2
2024-05-09T11:06:01.655Z,25.2
2024-05-09T11:07:05.111Z,25.2
2024-05-09T11:08:01.617Z,25.1
2024-05-09T11:09:01.615Z,25.1
2024-05-09T11:10:01.696Z,25.1
2024-05-09T11:11:01.647Z,25.1
2024-05-09T11:12:01.666Z,25.1
2024-05-09T11:13:01.682Z,25.1
2024-05-09T11:15:01.630Z,25.1
2024-05-09T11:16:01.761Z,25
2024-05-09T11:18:01.639Z,25
2024-05-09T11:19:01.833Z,25
2024-05-09T11:21:01.689Z,25
2024-05-09T11:22:01.730Z,25
2024-05-09T11:23:01.664Z,25
2024-05-09T11:25:01.695Z,25
2024-05-09T11:26:01.633Z,25
2024-05-09T11:27:01.656Z,25
2024-05-09T11:28:01.747Z,25
2024-05-09T11:29:01.647Z,25
2024-05-09T11:31:01.723Z,25
2024-05-09T11:32:01.704Z,25
2024-05-09T11:33:01.764Z,25
2024-05-09T11:34:01.697Z,25
2024-05-09T11:35:01.689Z,25
2024-05-09T11:36:01.654Z,25
2024-05-09T11:37:01.808Z,25
2024-05-09T11:38:01.599Z,25
2024-05-09T11:39:01.643Z,25
2024-05-09T11:40:01.716Z,25
2024-05-09T11:41:01.651Z,25
2024-05-09T11:42:01.669Z,25
2024-05-09T11:44:01.821Z,25
2024-05-09T11:45:01.587Z,25
2024-05-09T11:46:01.702Z,25
2024-05-09T11:47:01.663Z,25
2024-05-09T11:48:01.917Z,25
2024-05-09T11:49:01.879Z,25
2024-05-09T11:51:01.615Z,25
2024-05-09T11:52:01.750Z,25
2024-05-09T11:53:01.715Z,25
2024-05-09T11:54:01.638Z,25
2024-05-09T11:55:01.715Z,25
2024-05-09T11:56:01.673Z,25
2024-05-09T11:57:01.682Z,25
2024-05-09T11:59:01.622Z,25
2024-05-09T12:00:01.683Z,25
2024-05-09T12:01:01.777Z,25
2024-05-09T12:02:01.903Z,25
2024-05-09T12:03:01.654Z,25
2024-05-09T12:04:01.988Z,25
2024-05-09T12:05:01.825Z,25
2024-05-09T12:07:01.720Z,25
2024-05-09T12:08:01.813Z,25
2024-05-09T12:09:01.669Z,25
2024-05-09T12:10:01.862Z,25
2024-05-09T12:11:01.825Z,25
2024-05-09T12:12:01.695Z,25
2024-05-09T12:13:01.780Z,25
2024-05-09T12:14:01.855Z,25
2024-05-09T12:16:01.807Z,25
2024-05-09T12:17:01.690Z,25
2024-05-09T12:19:01.752Z,25
2024-05-09T12:20:01.708Z,25
2024-05-09T12:21:01.665Z,25
2024-05-09T12:22:01.752Z,25
2024-05-09T12:23:01.700Z,25
2024-05-09T12:24:01.688Z,25
2024-05-09T12:25:01.728Z,25
2024-05-09T12:26:01.766Z,25
2024-05-09T12:27:01.683Z,25
2024-05-09T12:28:01.860Z,25
2024-05-09T12:29:01.720Z,25
2024-05-09T12:30:01.688Z,25
2024-05-09T12:31:01.729Z,25
2024-05-09T12:32:01.797Z,25
2024-05-09T12:33:01.811Z,25
2024-05-09T12:35:01.728Z,25
2024-05-09T12:36:01.733Z,25
2024-05-09T12:37:01.765Z,25
2024-05-09T12:38:01.756Z,25
2024-05-09T12:39:01.707Z,25
2024-05-09T12:40:01.750Z,25
2024-05-09T12:41:01.706Z,25
2024-05-09T12:42:01.736Z,25
2024-05-09T12:43:01.826Z,25
2024-05-09T12:44:01.712Z,25
2024-05-09T12:45:01.690Z,25
2024-05-09T12:46:01.824Z,25
2024-05-09T12:47:01.772Z,25
2024-05-09T12:49:01.834Z,25
2024-05-09T12:50:01.764Z,25
2024-05-09T12:51:01.709Z,25
2024-05-09T12:52:01.704Z,25
2024-05-09T12:53:02.353Z,25
2024-05-09T12:54:01.712Z,25
2024-05-09T12:56:03.221Z,25
2024-05-09T12:57:01.703Z,25
2024-05-09T12:58:01.763Z,25
2024-05-09T12:59:01.766Z,25
2024-05-09T13:01:01.965Z,25
2024-05-09T13:02:01.856Z,25
2024-05-09T13:03:02.045Z,25
2024-05-09T13:04:02.038Z,25
2024-05-09T13:05:01.918Z,24.9
2024-05-09T13:06:01.713Z,24.9
2024-05-09T13:07:03.145Z,24.9
2024-05-09T13:08:01.693Z,24.9
2024-05-09T13:09:01.750Z,24.9
2024-05-09T13:10:01.758Z,24.9
2024-05-09T13:11:01.724Z,24.9
2024-05-09T13:13:02.355Z,24.9
2024-05-09T13:14:01.686Z,24.9
2024-05-09T13:15:01.734Z,24.9
2024-05-09T13:16:01.975Z,24.9
2024-05-09T13:17:01.731Z,24.9
2024-05-09T13:18:03.262Z,24.9
2024-05-09T13:20:02.481Z,24.9
2024-05-09T13:21:01.712Z,24.9
2024-05-09T13:22:01.782Z,24.9
2024-05-09T13:23:01.860Z,24.9
2024-05-09T13:24:01.731Z,24.9
2024-05-09T13:25:01.840Z,24.9
2024-05-09T13:27:01.731Z,24.9
2024-05-09T13:28:02.049Z,24.9
2024-05-09T13:29:01.719Z,24.9
2024-05-09T13:30:01.780Z,24.9
2024-05-09T13:31:01.855Z,24.9
2024-05-09T13:33:01.842Z,24.9
2024-05-09T13:34:01.917Z,24.9
2024-05-09T13:35:01.754Z,24.9
2024-05-09T13:36:01.770Z,24.9
2024-05-09T13:37:01.759Z,24.9
2024-05-09T13:38:01.794Z,24.9
2024-05-09T13:40:01.841Z,24.9
2024-05-09T13:41:01.698Z,24.9
2024-05-09T13:42:01.743Z,24.9
2024-05-09T13:44:01.835Z,24.9
2024-05-09T13:45:01.781Z,24.9
2024-05-09T13:47:01.788Z,24.9
2024-05-09T13:48:01.980Z,24.9
2024-05-09T13:49:02.125Z,24.9
2024-05-09T13:50:02.641Z,24.9
2024-05-09T13:51:01.774Z,24.9
2024-05-09T13:52:01.819Z,24.9
2024-05-09T13:54:01.767Z,24.9
2024-05-09T13:55:01.824Z,24.9
2024-05-09T13:57:01.795Z,24.8
2024-05-09T13:58:01.923Z,24.8
2024-05-09T13:59:01.744Z,24.8
2024-05-09T14:00:01.960Z,24.8
2024-05-09T14:01:01.859Z,24.8
2024-05-09T14:02:01.883Z,24.8
2024-05-09T14:03:01.866Z,24.8
2024-05-09T14:04:01.974Z,24.8
2024-05-09T14:06:01.815Z,24.7
2024-05-09T14:07:01.849Z,24.7
2024-05-09T14:09:01.793Z,24.7
2024-05-09T14:10:01.825Z,24.7
2024-05-09T14:11:01.915Z,24.7
2024-05-09T14:12:01.788Z,24.6
2024-05-09T14:13:02.012Z,24.6
2024-05-09T14:14:01.792Z,24.6
2024-05-09T14:15:01.769Z,24.6
2024-05-09T14:16:01.925Z,24.6
2024-05-09T14:17:01.902Z,24.6
2024-05-09T14:18:01.853Z,24.6
2024-05-09T14:19:01.926Z,24.6
2024-05-09T14:20:01.994Z,24.6
2024-05-09T14:22:01.843Z,24.6
2024-05-09T14:23:01.774Z,24.6
2024-05-09T14:25:01.856Z,24.6
2024-05-09T14:26:01.768Z,24.7
2024-05-09T14:27:01.776Z,24.7
2024-05-09T14:28:01.834Z,24.7
2024-05-09T14:29:01.771Z,24.7
2024-05-09T14:31:01.835Z,24.8
2024-05-09T14:32:01.807Z,24.8
2024-05-09T14:34:02.086Z,24.8
2024-05-09T14:36:01.731Z,24.8
2024-05-09T14:37:01.845Z,24.8
2024-05-09T14:38:01.812Z,24.8
2024-05-09T14:39:01.774Z,24.8
2024-05-09T14:40:02.178Z,24.8
2024-05-09T14:41:01.810Z,24.8
2024-05-09T14:42:01.768Z,24.8
2024-05-09T14:43:03.092Z,24.8
2024-05-09T14:44:01.833Z,24.8
2024-05-09T14:45:01.838Z,24.8
2024-05-09T14:47:01.839Z,24.8
2024-05-09T14:48:01.921Z,24.8
2024-05-09T14:49:02.082Z,24.8
2024-05-09T14:51:01.923Z,24.8
2024-05-09T14:52:01.864Z,24.8
2024-05-09T14:54:01.808Z,24.8
2024-05-09T14:55:01.890Z,24.8
2024-05-09T14:56:01.829Z,24.8
2024-05-09T14:57:01.979Z,24.8
2024-05-09T14:59:01.818Z,24.7
2024-05-09T15:01:01.911Z,24.7
2024-05-09T15:02:02.109Z,24.7
2024-05-09T15:03:03.440Z,24.7
2024-05-09T15:05:02.028Z,24.7
2024-05-09T15:06:01.944Z,24.7
2024-05-09T15:08:01.829Z,24.7
2024-05-09T15:09:01.904Z,24.7
2024-05-09T15:10:01.864Z,24.7
2024-05-09T15:12:01.829Z,24.6
2024-05-09T15:13:01.886Z,24.6
2024-05-09T15:14:01.801Z,24.6
2024-05-09T15:15:01.825Z,24.6
2024-05-09T15:16:01.853Z,24.7
2024-05-09T15:17:01.827Z,24.7
2024-05-09T15:19:02.120Z,24.7
2024-05-09T15:20:02.014Z,24.7
2024-05-09T15:21:01.976Z,24.7
2024-05-09T15:22:01.881Z,24.6
2024-05-09T15:23:01.845Z,24.6
2024-05-09T15:24:01.875Z,24.6
2024-05-09T15:25:01.889Z,24.6
2024-05-09T15:26:01.875Z,24.6
2024-05-09T15:27:01.851Z,24.6
2024-05-09T15:28:02.064Z,24.7
2024-05-09T15:30:01.828Z,24.7
2024-05-09T15:31:01.974Z,24.7
2024-05-09T15:33:01.923Z,24.8
2024-05-09T15:35:01.807Z,24.8
2024-05-09T15:36:01.821Z,24.8
2024-05-09T15:37:01.884Z,24.8
2024-05-09T15:38:01.853Z,24.8
2024-05-09T15:40:01.944Z,24.8
2024-05-09T15:41:01.976Z,24.8
2024-05-09T15:42:01.842Z,24.8
2024-05-09T15:43:02.077Z,24.8
2024-05-09T15:44:01.904Z,24.8
2024-05-09T15:45:01.831Z,24.8
2024-05-09T15:46:01.961Z,24.8
2024-05-09T15:47:01.851Z,24.8
2024-05-09T15:48:02.044Z,24.8
2024-05-09T15:49:02.069Z,24.8
2024-05-09T15:50:02.009Z,24.8
2024-05-09T15:51:02.006Z,24.8
2024-05-09T15:53:01.930Z,24.8
2024-05-09T15:54:01.862Z,24.8
2024-05-09T15:55:01.855Z,24.8
2024-05-09T15:56:01.932Z,24.8
2024-05-09T15:58:02.115Z,24.8
2024-05-09T15:59:01.926Z,24.8
2024-05-09T16:00:01.907Z,24.8
2024-05-09T16:02:01.992Z,24.9
2024-05-09T16:03:01.859Z,24.9
2024-05-09T16:05:01.988Z,24.9
2024-05-09T16:08:01.957Z,24.9
2024-05-09T16:10:02.000Z,24.9
2024-05-09T16:12:01.863Z,24.9
2024-05-09T16:13:02.360Z,24.9